CheckWX is a tool to help pilots better visualize weather data.  It is not intended as a substitute for an official pre-flight weather briefing.

08:16:19 UTC

KAVP METAR
Wilkes-Barre / Scranton International Airport
Wilkes-Barre/Scranton, Pennsylvania, USA
Current

22 mins ago

KAVP 090754Z AUTO 10005KT 10SM CLR 21/18 A2999 RMK AO2 SLP146 T02060183
Observed
Jul-9 @ 07:54 UTC
Wind
  • 100° at 5 KTS
Visibility
10 SM
Flight Rules
VFR
Cloud Levels
  • Clear skies
Temperature
21°C / 70°F
Dewpoint
18°C / 64°F
Humidity
83%
Altimeter
29.99" Hg
Pressure
1015.62 hPa
Previous

1 hour ago

KAVP 090654Z 11005KT 10SM CLR 21/18 A2999 RMK AO2 SLP144 T02060183
Observed
Jul-9 @ 06:54 UTC
Wind
  • 110° at 5 KTS
Visibility
10 SM
Flight Rules
VFR
Cloud Levels
  • Clear skies
Temperature
21°C / 70°F
Dewpoint
18°C / 64°F
Humidity
83%
Altimeter
29.99" Hg
Pressure
1015.62 hPa
Previous

2 hours ago

KAVP 090554Z 11004KT 10SM CLR 21/19 A2999 RMK AO2 SLP146 60000 T02110189 10244 20206 53000
Observed
Jul-9 @ 05:54 UTC
Wind
  • 110° at 4 KTS
Visibility
10 SM
Flight Rules
VFR
Cloud Levels
  • Clear skies
Temperature
21°C / 70°F
Dewpoint
19°C / 66°F
Humidity
88%
Altimeter
29.99" Hg
Pressure
1015.62 hPa